Time;durP1;ratioP1;P1;durP2;ratioP2;P2;SDS_P1;SDS_P2;PMS_P1;PMS_P2;Temp;Humidity;BMP_temperature;BMP_pressure;BME280_temperature;BME280_humidity;BME280_pressure;Samples;Min_cycle;Max_cycle;Signal;HPM_P1;HPM_P2
2023/05/15 00:00:54;;;;;;;27.17;13.48;;;;;;;12.50;100.00;101429.00;5091943;28;20544;-71
2023/05/15 00:03:20;;;;;;;25.90;12.38;;;;;;;12.45;100.00;101420.75;5091969;28;20101;-71
2023/05/15 00:05:45;;;;;;;25.63;12.88;;;;;;;12.40;100.00;101424.00;5091812;28;20032;-71
2023/05/15 00:08:10;;;;;;;26.38;12.65;;;;;;;12.36;100.00;101432.59;5090648;28;20475;-71
2023/05/15 00:10:36;;;;;;;22.38;12.05;;;;;;;12.27;100.00;101422.03;5091505;28;20028;-71
2023/05/15 00:13:01;;;;;;;25.20;13.02;;;;;;;12.25;100.00;101424.06;5090397;28;20036;-71
2023/05/15 00:15:28;;;;;;;25.98;12.25;;;;;;;12.22;100.00;101427.13;5091468;28;20136;-71
2023/05/15 00:17:53;;;;;;;24.77;13.27;;;;;;;12.16;100.00;101414.56;5091496;28;20483;-71
2023/05/15 00:20:19;;;;;;;25.33;13.65;;;;;;;12.10;100.00;101409.13;5091572;28;20032;-71
2023/05/15 00:22:44;;;;;;;26.33;15.02;;;;;;;12.06;100.00;101409.53;5091559;28;20056;-71
2023/05/15 00:25:10;;;;;;;26.13;13.57;;;;;;;12.03;100.00;101409.91;5090212;28;20058;-71
2023/05/15 00:27:35;;;;;;;25.25;15.60;;;;;;;12.02;100.00;101404.75;5091422;28;20067;-71
2023/05/15 00:30:01;;;;;;;24.50;12.45;;;;;;;11.95;100.00;101404.72;5091474;28;20032;-71
2023/05/15 00:32:26;;;;;;;25.30;14.02;;;;;;;11.95;100.00;101406.56;5091696;28;20455;-71
2023/05/15 00:34:51;;;;;;;28.13;14.10;;;;;;;11.89;100.00;101402.78;5091233;28;20035;-71
2023/05/15 00:37:17;;;;;;;27.38;15.00;;;;;;;11.87;100.00;101399.50;5091271;28;20035;-71
2023/05/15 00:39:42;;;;;;;25.90;13.27;;;;;;;11.84;100.00;101397.16;5090981;28;20043;-71
2023/05/15 00:42:08;;;;;;;26.52;14.43;;;;;;;11.80;100.00;101398.56;5091320;28;20035;-71
2023/05/15 00:44:35;;;;;;;26.33;14.55;;;;;;;11.76;100.00;101398.13;5091096;28;20414;-70
2023/05/15 00:47:02;;;;;;;30.90;15.57;;;;;;;11.73;100.00;101405.69;5091018;28;20054;-71
2023/05/15 00:49:28;;;;;;;26.90;15.27;;;;;;;11.72;100.00;101410.22;5091403;28;20028;-71
2023/05/15 00:51:56;;;;;;;26.92;15.43;;;;;;;11.68;100.00;101395.56;5090893;28;20081;-70
2023/05/15 00:54:21;;;;;;;26.52;15.18;;;;;;;11.68;100.00;101400.91;5091137;28;20112;-71
2023/05/15 00:56:48;;;;;;;28.52;16.25;;;;;;;11.69;100.00;101397.22;5091108;28;20446;-71
2023/05/15 00:59:16;;;;;;;27.98;15.45;;;;;;;11.68;100.00;101394.75;5089606;28;20027;-71
2023/05/15 01:01:44;;;;;;;27.38;15.18;;;;;;;11.61;100.00;101390.16;5090870;28;20039;-70
2023/05/15 01:04:10;;;;;;;26.63;13.55;;;;;;;11.60;100.00;101393.84;5090751;28;20085;-71
2023/05/15 01:06:36;;;;;;;27.90;15.50;;;;;;;11.54;100.00;101386.59;5090486;28;20028;-71
2023/05/15 01:09:03;;;;;;;28.45;16.33;;;;;;;11.52;100.00;101383.28;5090732;28;20067;-71
2023/05/15 01:11:34;;;;;;;26.90;13.98;;;;;;;11.48;100.00;101383.88;5090716;28;20524;-70
2023/05/15 01:14:03;;;;;;;28.05;14.50;;;;;;;11.43;100.00;101389.78;5091120;28;20489;-71
2023/05/15 01:16:28;;;;;;;24.63;14.05;;;;;;;11.43;100.00;101391.63;5090472;28;20560;-71
2023/05/15 01:18:54;;;;;;;28.63;16.50;;;;;;;11.38;100.00;101389.50;5090408;28;20123;-71
2023/05/15 01:21:39;;;;;;;25.20;14.55;;;;;;;11.38;100.00;101393.00;5090295;28;20055;-71
2023/05/15 01:24:29;;;;;;;27.63;14.95;;;;;;;11.33;100.00;101383.91;5090032;28;20124;-71
2023/05/15 01:27:33;;;;;;;26.02;15.18;;;;;;;11.33;100.00;101386.56;5090349;28;20031;-70
2023/05/15 01:30:10;;;;;;;29.40;16.23;;;;;;;11.33;100.00;101375.88;5075514;28;20032;-71
2023/05/15 01:32:54;;;;;;;26.80;15.52;;;;;;;11.30;100.00;101389.63;5090265;28;20048;-71
2023/05/15 01:35:38;;;;;;;29.83;15.52;;;;;;;11.30;100.00;101377.09;5088647;28;20031;-71
2023/05/15 01:38:18;;;;;;;28.70;16.85;;;;;;;11.27;100.00;101372.13;5090099;28;20059;-70
2023/05/15 01:40:46;;;;;;;30.40;17.85;;;;;;;11.25;100.00;101373.34;5090065;28;20028;-71
2023/05/15 01:43:17;;;;;;;33.05;17.00;;;;;;;11.24;100.00;101361.84;5090010;28;20057;-70
2023/05/15 01:45:43;;;;;;;32.43;18.73;;;;;;;11.19;100.00;101366.91;5089974;28;20035;-71
2023/05/15 01:48:11;;;;;;;31.95;16.35;;;;;;;11.16;100.00;101369.94;5089852;28;20024;-71
2023/05/15 01:50:38;;;;;;;32.28;16.80;;;;;;;11.23;100.00;101376.19;5089706;28;20082;-71
2023/05/15 01:53:07;;;;;;;29.70;16.35;;;;;;;11.17;100.00;101372.44;5089491;28;20081;-71
2023/05/15 01:55:33;;;;;;;30.92;17.00;;;;;;;11.14;100.00;101369.31;5088553;28;20028;-71
2023/05/15 01:58:01;;;;;;;29.70;17.58;;;;;;;11.07;100.00;101360.41;5089626;28;20032;-71
2023/05/15 02:00:28;;;;;;;33.83;17.65;;;;;;;10.98;100.00;101362.34;5089726;28;20372;-70
2023/05/15 02:02:55;;;;;;;34.83;20.13;;;;;;;10.98;100.00;101365.03;5089631;28;20222;-71
2023/05/15 02:05:22;;;;;;;32.80;17.30;;;;;;;10.99;100.00;101368.50;5089570;28;20028;-71
2023/05/15 02:07:48;;;;;;;27.45;17.02;;;;;;;10.94;100.00;101366.41;5089525;28;20054;-71
2023/05/15 02:10:15;;;;;;;34.50;19.80;;;;;;;10.89;100.00;101358.13;5089634;28;20043;-71
2023/05/15 02:12:42;;;;;;;32.83;19.20;;;;;;;10.91;100.00;101366.78;5089423;28;20479;-71
2023/05/15 02:15:12;;;;;;;31.67;18.38;;;;;;;10.85;100.00;101363.00;5088783;28;20048;-71
2023/05/15 02:17:37;;;;;;;36.10;20.75;;;;;;;10.83;100.00;101364.22;5089443;28;20141;-71
2023/05/15 02:20:04;;;;;;;28.58;16.73;;;;;;;10.81;100.00;101363.56;5088008;28;20057;-71
2023/05/15 02:22:30;;;;;;;33.47;19.13;;;;;;;10.78;100.00;101356.75;5089336;28;20032;-71
2023/05/15 02:24:55;;;;;;;28.50;17.35;;;;;;;10.78;100.00;101361.25;5087729;28;20113;-70
2023/05/15 02:27:33;;;;;;;32.33;18.98;;;;;;;10.72;100.00;101349.50;5089428;28;20028;-71
2023/05/15 02:30:28;;;;;;;33.72;19.10;;;;;;;10.76;100.00;101353.44;5089196;28;20027;-71
2023/05/15 02:33:35;;;;;;;34.63;18.05;;;;;;;10.72;100.00;101352.16;5089170;28;20526;-71
2023/05/15 02:36:05;;;;;;;31.13;18.48;;;;;;;10.70;100.00;101356.84;5089472;28;20024;-70
2023/05/15 02:38:43;;;;;;;34.95;19.52;;;;;;;10.65;100.00;101360.06;5089308;28;20024;-70
2023/05/15 02:41:10;;;;;;;34.38;19.77;;;;;;;10.66;100.00;101358.22;5089099;28;20020;-71
2023/05/15 02:43:36;;;;;;;32.10;20.25;;;;;;;10.62;100.00;101357.78;5089404;28;20036;-71
2023/05/15 02:46:04;;;;;;;34.35;22.27;;;;;;;10.60;100.00;101356.31;5088829;28;20028;-70
2023/05/15 02:48:29;;;;;;;34.70;20.45;;;;;;;10.57;100.00;101356.69;5087785;28;20115;-71
2023/05/15 02:50:55;;;;;;;32.90;19.05;;;;;;;10.53;100.00;101361.53;5088847;28;20142;-71
2023/05/15 02:53:21;;;;;;;36.45;19.08;;;;;;;10.53;100.00;101367.72;5089073;28;20110;-71
2023/05/15 02:55:47;;;;;;;33.63;21.70;;;;;;;10.48;100.00;101366.63;5088862;28;20031;-71
2023/05/15 02:58:12;;;;;;;32.97;19.35;;;;;;;10.50;100.00;101367.25;5087766;28;20035;-71
2023/05/15 03:00:38;;;;;;;37.22;21.48;;;;;;;10.52;100.00;101378.56;5088872;28;20043;-70
2023/05/15 03:03:03;;;;;;;37.58;20.73;;;;;;;10.44;100.00;101367.97;5090724;28;20028;-71
2023/05/15 03:05:29;;;;;;;34.58;20.75;;;;;;;10.45;100.00;101375.81;5093030;28;20082;-70
2023/05/15 03:07:54;;;;;;;34.25;21.55;;;;;;;10.42;100.00;101364.66;5093142;28;20123;-70
2023/05/15 03:10:22;;;;;;;34.03;20.88;;;;;;;10.41;100.00;101363.84;5091528;28;20059;-70
2023/05/15 03:12:47;;;;;;;33.80;20.48;;;;;;;10.39;100.00;101357.84;5093277;28;20085;-70
2023/05/15 03:15:13;;;;;;;34.33;19.58;;;;;;;10.38;100.00;101358.06;5092585;28;20048;-70
2023/05/15 03:17:38;;;;;;;43.28;22.10;;;;;;;10.31;100.00;101350.75;5092741;28;20028;-70
2023/05/15 03:20:04;;;;;;;34.75;20.15;;;;;;;10.26;100.00;101361.13;5092837;28;20503;-70
2023/05/15 03:22:29;;;;;;;36.20;20.00;;;;;;;10.26;100.00;101360.28;5092463;28;20479;-70
2023/05/15 03:24:55;;;;;;;36.45;21.77;;;;;;;10.23;100.00;101360.66;5092627;28;20024;-70
2023/05/15 03:27:20;;;;;;;41.75;21.05;;;;;;;10.21;100.00;101357.34;5091385;28;20166;-70
2023/05/15 03:29:47;;;;;;;40.25;19.83;;;;;;;10.20;100.00;101355.69;5091237;28;20028;-70
2023/05/15 03:32:13;;;;;;;35.58;20.58;;;;;;;10.14;100.00;101351.06;5092404;28;20028;-70
2023/05/15 03:34:38;;;;;;;39.70;22.88;;;;;;;10.14;100.00;101353.75;5092482;28;20356;-70
2023/05/15 03:37:04;;;;;;;38.67;22.92;;;;;;;10.12;100.00;101351.28;5092250;28;20044;-70
2023/05/15 03:39:29;;;;;;;36.90;22.80;;;;;;;10.11;100.00;101344.28;5092395;28;20024;-70
2023/05/15 03:41:54;;;;;;;39.83;21.27;;;;;;;10.09;100.00;101340.97;5091032;28;20032;-70
2023/05/15 03:44:20;;;;;;;41.33;24.85;;;;;;;10.07;100.00;101346.47;5092326;28;20024;-71
2023/05/15 03:46:45;;;;;;;41.92;24.98;;;;;;;10.04;100.00;101344.19;5092118;28;20069;-70
2023/05/15 03:49:10;;;;;;;38.60;22.48;;;;;;;10.03;100.00;101344.34;5092214;28;20034;-70
2023/05/15 03:51:36;;;;;;;41.50;22.85;;;;;;;10.02;100.00;101351.53;5091980;28;20059;-70
2023/05/15 03:54:04;;;;;;;41.17;23.48;;;;;;;10.01;100.00;101357.06;5092158;28;20115;-70
2023/05/15 03:56:30;;;;;;;42.38;26.15;;;;;;;9.99;100.00;101359.88;5090891;28;20032;-70
2023/05/15 03:58:55;;;;;;;46.22;27.35;;;;;;;9.95;100.00;101355.91;5092099;28;20031;-70
2023/05/15 04:01:21;;;;;;;44.63;26.95;;;;;;;9.96;100.00;101346.09;5091819;28;20587;-70
2023/05/15 04:03:46;;;;;;;40.17;23.52;;;;;;;9.95;100.00;101352.41;5092114;28;20028;-70
2023/05/15 04:06:11;;;;;;;41.05;23.80;;;;;;;9.95;100.00;101347.09;5091506;28;20028;-70
2023/05/15 04:08:37;;;;;;;41.22;22.27;;;;;;;9.92;100.00;101345.63;5091869;28;20414;-70
2023/05/15 04:11:02;;;;;;;39.65;23.75;;;;;;;9.89;100.00;101343.31;5091688;28;20070;-70
2023/05/15 04:13:27;;;;;;;44.42;25.48;;;;;;;9.91;100.00;101341.31;5091825;28;20477;-71
2023/05/15 04:15:53;;;;;;;42.63;23.50;;;;;;;9.93;100.00;101336.63;5090562;28;20048;-70
2023/05/15 04:18:19;;;;;;;40.47;23.38;;;;;;;9.97;100.00;101337.91;5091700;28;20032;-70
2023/05/15 04:20:44;;;;;;;44.47;26.13;;;;;;;9.89;100.00;101330.00;5090065;28;20032;-70
2023/05/15 04:23:10;;;;;;;44.28;23.48;;;;;;;9.93;100.00;101335.78;5091503;28;20036;-70
2023/05/15 04:25:36;;;;;;;43.42;25.83;;;;;;;9.93;100.00;101335.78;5091266;28;20027;-70
2023/05/15 04:28:01;;;;;;;44.85;24.88;;;;;;;9.87;100.00;101350.66;5091340;28;20063;-70
2023/05/15 04:30:27;;;;;;;40.80;23.67;;;;;;;9.85;100.00;101344.66;5091475;28;20067;-70
2023/05/15 04:32:52;;;;;;;43.95;24.10;;;;;;;9.82;100.00;101353.03;5091392;28;20035;-71
2023/05/15 04:35:18;;;;;;;41.92;23.63;;;;;;;9.86;100.00;101351.66;5090047;28;20016;-70
2023/05/15 04:37:46;;;;;;;42.13;22.80;;;;;;;9.87;100.00;101351.47;5089979;28;20020;-70
2023/05/15 04:40:13;;;;;;;42.25;26.17;;;;;;;9.89;100.00;101359.31;5091253;28;20035;-70
2023/05/15 04:42:39;;;;;;;47.90;26.15;;;;;;;9.90;100.00;101360.94;5091614;28;20441;-70
2023/05/15 04:45:05;;;;;;;46.58;24.30;;;;;;;9.94;100.00;101367.59;5091037;28;20016;-70
2023/05/15 04:47:31;;;;;;;43.63;24.42;;;;;;;9.96;100.00;101367.41;5090974;28;20032;-70
2023/05/15 04:49:56;;;;;;;39.97;21.70;;;;;;;9.98;100.00;101371.56;5090832;28;20090;-70
2023/05/15 04:52:22;;;;;;;42.33;22.33;;;;;;;9.93;100.00;101381.94;5090875;28;20032;-70
2023/05/15 04:54:49;;;;;;;43.40;22.58;;;;;;;9.93;100.00;101383.75;5090739;28;20089;-70
2023/05/15 04:57:15;;;;;;;42.60;23.98;;;;;;;9.85;100.00;101380.16;5091014;28;20448;-70
2023/05/15 04:59:40;;;;;;;36.92;20.50;;;;;;;9.86;100.00;101388.97;5090806;28;20114;-70
2023/05/15 05:02:09;;;;;;;36.80;21.73;;;;;;;9.86;100.00;101391.63;5090827;28;20036;-70
2023/05/15 05:04:34;;;;;;;39.17;22.27;;;;;;;9.81;100.00;101400.16;5090985;28;20028;-70
2023/05/15 05:06:59;;;;;;;41.70;22.98;;;;;;;9.80;100.00;101400.34;5090816;28;20032;-70
2023/05/15 05:09:25;;;;;;;40.67;23.35;;;;;;;9.83;100.00;101400.00;5089730;28;20376;-70
2023/05/15 05:11:50;;;;;;;38.92;21.27;;;;;;;9.83;100.00;101390.16;5090564;28;20035;-70
2023/05/15 05:14:15;;;;;;;38.70;21.58;;;;;;;9.93;100.00;101389.91;5090948;28;20048;-70
2023/05/15 05:16:43;;;;;;;37.13;19.70;;;;;;;9.95;100.00;101393.22;5090437;28;20057;-70
2023/05/15 05:19:08;;;;;;;40.67;21.50;;;;;;;9.97;100.00;101388.53;5090624;28;20032;-70
2023/05/15 05:21:34;;;;;;;39.92;20.77;;;;;;;10.02;100.00;101393.34;5090565;28;20373;-70
2023/05/15 05:23:59;;;;;;;38.30;21.33;;;;;;;10.12;100.00;101398.44;5090370;28;20118;-70
2023/05/15 05:26:25;;;;;;;38.97;22.75;;;;;;;10.41;100.00;101389.69;5089606;28;20059;-70
2023/05/15 05:28:51;;;;;;;40.22;21.75;;;;;;;10.99;100.00;101392.53;5090464;28;20063;-70
2023/05/15 05:31:17;;;;;;;35.95;20.02;;;;;;;11.12;100.00;101392.69;5090251;28;20106;-70
2023/05/15 05:33:43;;;;;;;39.08;21.42;;;;;;;11.18;100.00;101399.94;5090552;28;20074;-70
2023/05/15 05:36:08;;;;;;;37.63;20.90;;;;;;;11.18;100.00;101400.75;5089970;28;20968;-70
2023/05/15 05:38:35;;;;;;;33.90;18.17;;;;;;;11.14;100.00;101410.19;5090102;28;20484;-70
2023/05/15 05:41:00;;;;;;;34.88;20.52;;;;;;;11.02;100.00;101411.66;5090196;28;20035;-70
2023/05/15 05:43:26;;;;;;;40.20;21.67;;;;;;;11.02;100.00;101413.50;5089055;28;20039;-70
2023/05/15 05:45:52;;;;;;;39.35;21.80;;;;;;;11.10;100.00;101408.88;5088582;28;20035;-70
2023/05/15 05:48:17;;;;;;;34.38;19.85;;;;;;;11.13;100.00;101410.34;5089897;28;20052;-70
2023/05/15 05:50:43;;;;;;;33.15;20.05;;;;;;;11.10;100.00;101413.41;5089760;28;20102;-71
2023/05/15 05:53:08;;;;;;;34.67;20.10;;;;;;;11.00;100.00;101413.69;5090059;28;20031;-70
2023/05/15 05:55:34;;;;;;;35.67;19.65;;;;;;;11.04;100.00;101416.81;5089929;28;20050;-70
2023/05/15 05:58:00;;;;;;;36.42;22.50;;;;;;;11.10;100.00;101408.06;5090101;28;20100;-70
2023/05/15 06:00:25;;;;;;;34.25;21.08;;;;;;;11.10;100.00;101403.53;5089881;28;20027;-71
2023/05/15 06:02:57;;;;;;;33.50;20.42;;;;;;;11.07;100.00;101403.09;5089768;28;20024;-71
2023/05/15 06:05:23;;;;;;;34.88;20.20;;;;;;;11.00;100.00;101408.34;5089823;28;20032;-70
2023/05/15 06:07:48;;;;;;;32.90;19.65;;;;;;;10.95;100.00;101414.25;5089603;28;20420;-70
2023/05/15 06:10:14;;;;;;;34.30;20.48;;;;;;;10.95;100.00;101405.41;5089764;28;20106;-70
2023/05/15 06:12:40;;;;;;;34.97;19.98;;;;;;;10.91;100.00;101406.81;5089679;28;20028;-70
2023/05/15 06:15:06;;;;;;;34.05;20.60;;;;;;;10.94;100.00;101406.44;5089332;28;20050;-70
2023/05/15 06:17:32;;;;;;;29.85;17.88;;;;;;;11.00;100.00;101405.66;5089468;28;20122;-70
2023/05/15 06:19:57;;;;;;;34.78;21.23;;;;;;;11.08;100.00;101408.28;5089724;28;20111;-70
2023/05/15 06:22:22;;;;;;;31.75;19.05;;;;;;;11.31;100.00;101407.28;5089358;28;20028;-70
2023/05/15 06:24:48;;;;;;;34.22;21.65;;;;;;;11.51;100.00;101415.53;5089415;28;20387;-70
2023/05/15 06:27:13;;;;;;;34.70;21.50;;;;;;;11.63;100.00;101411.34;5088080;28;20032;-69
2023/05/15 06:29:39;;;;;;;34.20;19.23;;;;;;;11.82;100.00;101425.94;5089068;28;20044;-70
2023/05/15 06:32:05;;;;;;;31.92;17.55;;;;;;;11.96;100.00;101426.91;5089389;28;20031;-70
2023/05/15 06:34:30;;;;;;;31.42;16.30;;;;;;;12.03;100.00;101417.13;5089293;28;20573;-70
2023/05/15 06:36:55;;;;;;;31.30;18.88;;;;;;;12.10;100.00;101425.19;5089173;28;20028;-69
2023/05/15 06:39:21;;;;;;;27.90;17.05;;;;;;;12.11;100.00;101421.50;5089220;28;20052;-70
2023/05/15 06:41:46;;;;;;;28.65;17.02;;;;;;;12.02;100.00;101421.59;5089197;28;20406;-70
2023/05/15 06:44:11;;;;;;;28.85;17.13;;;;;;;11.90;100.00;101399.09;5089078;28;20081;-70
2023/05/15 06:46:37;;;;;;;25.63;16.15;;;;;;;11.88;100.00;101405.66;5089152;28;20032;-70
2023/05/15 06:49:02;;;;;;;28.05;15.80;;;;;;;11.91;100.00;101407.94;5088841;28;20048;-70
2023/05/15 06:51:28;;;;;;;29.83;16.05;;;;;;;11.90;100.00;101404.44;5089177;28;20110;-70
2023/05/15 06:53:53;;;;;;;27.38;15.82;;;;;;;11.91;100.00;101407.94;5089505;28;20028;-70
2023/05/15 06:56:18;;;;;;;28.20;15.82;;;;;;;11.88;100.00;101419.03;5088702;28;20020;-70
2023/05/15 06:58:44;;;;;;;26.10;16.30;;;;;;;11.90;100.00;101404.44;5089215;28;20036;-69
2023/05/15 07:01:09;;;;;;;27.75;16.73;;;;;;;11.90;100.00;101408.97;5088926;28;20547;-69
2023/05/15 07:03:35;;;;;;;28.90;16.45;;;;;;;11.98;100.00;101414.19;5088300;28;20051;-70
2023/05/15 07:06:00;;;;;;;27.90;16.20;;;;;;;12.05;100.00;101421.25;5088667;28;20024;-70
2023/05/15 07:08:26;;;;;;;26.48;16.73;;;;;;;12.08;100.00;101409.34;5089036;28;20028;-69
2023/05/15 07:10:52;;;;;;;27.35;15.80;;;;;;;12.10;100.00;101411.81;5088919;28;20032;-70
2023/05/15 07:13:19;;;;;;;26.50;17.00;;;;;;;12.11;100.00;101408.94;5088830;28;20036;-70
2023/05/15 07:15:45;;;;;;;26.73;15.88;;;;;;;12.16;100.00;101408.38;5088575;28;20036;-69
2023/05/15 07:18:10;;;;;;;27.67;16.10;;;;;;;12.18;100.00;101409.84;5087695;28;20037;-70
2023/05/15 07:20:36;;;;;;;27.95;16.02;;;;;;;12.21;100.00;101411.31;5087714;28;20023;-70
2023/05/15 07:23:02;;;;;;;29.67;17.10;;;;;;;12.27;100.00;101415.88;5088850;28;20483;-70
2023/05/15 07:25:27;;;;;;;24.75;14.80;;;;;;;12.33;100.00;101406.25;5088856;28;20036;-70
2023/05/15 07:27:53;;;;;;;27.92;16.98;;;;;;;12.46;100.00;101417.03;5088890;28;20028;-71
2023/05/15 07:30:18;;;;;;;30.67;16.98;;;;;;;12.60;100.00;101408.09;5084231;28;20082;-70
2023/05/15 07:32:43;;;;;;;29.05;19.30;;;;;;;12.64;100.00;101401.31;5082504;28;20035;-71
2023/05/15 07:35:10;;;;;;;28.27;18.08;;;;;;;12.73;100.00;101404.63;5080697;28;20165;-70
2023/05/15 07:37:36;;;;;;;33.45;16.15;;;;;;;12.79;99.25;101408.41;5082182;28;20031;-69
2023/05/15 07:40:02;;;;;;;29.33;16.35;;;;;;;12.87;97.54;101411.72;5082993;28;20387;-71
2023/05/15 07:42:27;;;;;;;27.77;16.73;;;;;;;12.90;97.43;101405.16;5082446;28;20046;-67
2023/05/15 07:44:53;;;;;;;27.92;17.85;;;;;;;13.02;98.34;101397.38;5082292;28;20296;-74
2023/05/15 07:47:18;;;;;;;27.90;17.48;;;;;;;13.09;97.25;101409.75;5064493;28;20148;-72
2023/05/15 07:49:44;;;;;;;32.25;17.08;;;;;;;13.13;95.73;101416.38;5083685;28;20102;-71
2023/05/15 07:52:09;;;;;;;30.50;19.17;;;;;;;13.13;97.70;101411.03;5085983;28;20070;-71
2023/05/15 07:54:34;;;;;;;28.20;16.25;;;;;;;13.22;97.01;101409.00;5086417;28;20024;-71
2023/05/15 07:57:00;;;;;;;27.85;17.15;;;;;;;13.35;95.38;101409.06;5086339;28;20031;-70
2023/05/15 07:59:26;;;;;;;27.45;16.50;;;;;;;13.45;95.58;101402.53;5089720;28;20042;-69
2023/05/15 08:01:51;;;;;;;28.52;17.50;;;;;;;13.53;92.23;101399.66;5092028;28;20981;-71
2023/05/15 08:04:16;;;;;;;28.48;17.60;;;;;;;13.72;91.92;101396.16;5092135;28;20039;-71
2023/05/15 08:06:42;;;;;;;29.52;18.23;;;;;;;14.62;90.67;101395.78;5092176;28;20024;-71
2023/05/15 08:09:08;;;;;;;28.85;17.67;;;;;;;15.87;83.27;101398.91;5092099;28;20096;-71
2023/05/15 08:11:33;;;;;;;26.20;16.45;;;;;;;17.82;75.33;101386.59;5092169;28;20028;-71
2023/05/15 08:13:59;;;;;;;26.85;16.08;;;;;;;19.64;67.50;101395.34;5091868;28;20032;-71
2023/05/15 08:16:24;;;;;;;25.52;14.25;;;;;;;21.10;59.49;101387.22;5091972;28;20045;-71
2023/05/15 08:18:52;;;;;;;22.65;12.45;;;;;;;22.43;54.07;101378.38;5091906;28;20069;-71
2023/05/15 08:21:17;;;;;;;22.98;15.43;;;;;;;23.15;51.11;101384.16;5091933;28;20035;-71
2023/05/15 08:23:43;;;;;;;23.05;13.50;;;;;;;24.05;50.05;101383.69;5092132;28;20364;-71
2023/05/15 08:26:08;;;;;;;22.67;13.75;;;;;;;24.38;47.10;101387.75;5091833;28;20120;-71
2023/05/15 08:28:34;;;;;;;22.27;13.23;;;;;;;25.15;46.28;101387.47;5091703;28;20024;-71
2023/05/15 08:30:59;;;;;;;19.63;13.40;;;;;;;25.83;43.92;101380.47;5091635;28;20032;-71
2023/05/15 08:33:24;;;;;;;22.27;13.18;;;;;;;26.18;43.16;101382.91;5091924;28;20501;-71
2023/05/15 08:35:50;;;;;;;23.52;14.15;;;;;;;26.20;38.95;101379.91;5091608;28;20023;-71
2023/05/15 08:38:16;;;;;;;22.70;12.95;;;;;;;26.13;39.62;101388.44;5091579;28;20031;-71
2023/05/15 08:40:46;;;;;;;23.25;14.68;;;;;;;26.33;41.03;101390.16;5091759;28;20031;-71
2023/05/15 08:43:14;;;;;;;21.83;13.68;;;;;;;26.36;38.89;101375.09;5091603;28;20042;-71
2023/05/15 08:45:40;;;;;;;23.23;14.10;;;;;;;26.21;37.92;101382.31;5091770;28;20125;-71
2023/05/15 08:48:20;;;;;;;21.35;12.82;;;;;;;26.77;42.43;101378.16;5090177;28;20441;-71
2023/05/15 08:50:47;;;;;;;21.75;14.75;;;;;;;26.81;38.52;101378.41;5091304;28;20035;-71
2023/05/15 08:53:13;;;;;;;23.98;14.35;;;;;;;25.88;39.06;101370.34;5089962;28;20038;-71
2023/05/15 08:55:39;;;;;;;20.40;13.60;;;;;;;24.12;42.50;101378.78;5091196;28;20466;-71
2023/05/15 08:58:05;;;;;;;21.08;12.93;;;;;;;22.67;44.53;101375.25;5091281;28;20115;-71
2023/05/15 09:00:31;;;;;;;21.60;12.48;;;;;;;21.36;47.83;101374.75;5091036;28;20024;-71
2023/05/15 09:03:00;;;;;;;22.98;15.13;;;;;;;20.46;50.54;101372.31;5089813;28;20298;-71
2023/05/15 09:05:27;;;;;;;22.13;14.45;;;;;;;19.90;55.02;101372.25;5091074;28;20145;-71
2023/05/15 09:07:53;;;;;;;21.17;13.85;;;;;;;19.41;56.26;101361.13;5091198;28;20024;-71
2023/05/15 09:10:19;;;;;;;22.52;14.65;;;;;;;18.93;58.01;101375.88;5091040;28;20467;-71
2023/05/15 09:12:45;;;;;;;22.58;14.52;;;;;;;18.71;63.26;101372.16;5090896;28;20558;-71
2023/05/15 09:15:20;;;;;;;23.60;14.60;;;;;;;18.42;62.45;101376.63;5090488;28;20048;-71
2023/05/15 09:17:46;;;;;;;23.20;14.65;;;;;;;18.01;66.06;101378.41;5089337;28;20048;-71
2023/05/15 09:20:36;;;;;;;23.75;14.80;;;;;;;17.86;65.48;101378.84;5090903;28;20507;-71
2023/05/15 09:23:04;;;;;;;25.15;14.93;;;;;;;17.60;67.52;101380.88;5089290;28;20447;-71
2023/05/15 09:25:41;;;;;;;24.25;15.63;;;;;;;17.67;67.04;101383.47;5089199;28;20477;-71
2023/05/15 09:28:24;;;;;;;23.73;14.55;;;;;;;17.72;66.63;101381.72;5090554;28;20081;-71
2023/05/15 09:30:56;;;;;;;25.23;14.95;;;;;;;17.60;65.44;101386.25;5090526;28;20035;-71
2023/05/15 09:33:27;;;;;;;21.48;13.57;;;;;;;17.59;64.35;101378.41;5090501;28;20031;-71
2023/05/15 09:35:53;;;;;;;23.33;14.07;;;;;;;17.55;67.75;101379.91;5090672;28;20048;-71
2023/05/15 09:38:18;;;;;;;20.15;12.65;;;;;;;17.35;64.99;101378.34;5090475;28;20059;-70
2023/05/15 09:40:43;;;;;;;20.98;12.90;;;;;;;17.34;66.42;101376.66;5090513;28;20032;-71
2023/05/15 09:43:13;;;;;;;21.77;12.30;;;;;;;17.43;65.98;101378.00;5090397;28;20560;-71
2023/05/15 09:45:38;;;;;;;22.10;12.93;;;;;;;17.55;67.20;101380.72;5090361;28;20043;-71
2023/05/15 09:48:05;;;;;;;21.60;12.35;;;;;;;17.52;63.11;101378.50;5088689;28;20044;-71
2023/05/15 09:50:35;;;;;;;22.42;12.02;;;;;;;17.51;67.23;101377.69;5090281;28;20031;-71
2023/05/15 09:53:01;;;;;;;20.00;11.85;;;;;;;17.36;64.94;101374.56;5090204;28;20055;-71
2023/05/15 09:55:27;;;;;;;21.80;12.57;;;;;;;17.36;67.63;101369.19;5090141;28;20129;-71
2023/05/15 09:58:12;;;;;;;23.65;12.73;;;;;;;17.39;70.01;101376.81;5090174;28;20035;-71
2023/05/15 10:00:39;;;;;;;22.90;14.18;;;;;;;17.24;69.09;101374.53;5090076;28;20043;-71
2023/05/15 10:03:05;;;;;;;26.55;15.32;;;;;;;17.41;70.20;101376.59;5090171;28;20044;-71
2023/05/15 10:05:32;;;;;;;24.35;15.23;;;;;;;17.33;70.66;101371.53;5089913;28;20080;-71
2023/05/15 10:07:58;;;;;;;23.75;15.52;;;;;;;17.23;70.46;101377.47;5090066;28;20421;-71
2023/05/15 10:10:25;;;;;;;24.35;14.38;;;;;;;17.09;71.88;101387.59;5089949;28;20032;-71
2023/05/15 10:12:52;;;;;;;23.40;14.48;;;;;;;17.01;71.96;101386.03;5089363;28;20514;-70
2023/05/15 10:15:19;;;;;;;24.15;14.35;;;;;;;16.98;72.38;101377.59;5089473;28;20181;-71
2023/05/15 10:17:49;;;;;;;25.58;14.18;;;;;;;17.03;73.02;101383.13;5088178;28;20050;-71
2023/05/15 10:20:16;;;;;;;23.20;14.82;;;;;;;16.86;74.17;101381.00;5089546;28;20372;-71
2023/05/15 10:22:49;;;;;;;24.17;15.27;;;;;;;16.82;73.37;101379.84;5089593;28;20020;-71
2023/05/15 10:25:25;;;;;;;22.95;14.63;;;;;;;16.83;75.78;101394.13;5089449;28;20024;-71
2023/05/15 10:27:52;;;;;;;26.35;16.60;;;;;;;16.70;77.07;101378.91;5088692;28;20055;-71
2023/05/15 10:30:19;;;;;;;22.02;14.43;;;;;;;16.70;76.21;101388.84;5089288;28;20036;-71
2023/05/15 10:32:44;;;;;;;25.27;14.55;;;;;;;16.60;76.93;101387.50;5089481;28;20360;-71
2023/05/15 10:35:10;;;;;;;23.08;14.75;;;;;;;16.57;77.92;101393.31;5089513;28;20035;-71
2023/05/15 10:37:38;;;;;;;24.67;14.88;;;;;;;16.49;79.02;101384.72;5088867;28;20078;-71
2023/05/15 10:40:07;;;;;;;29.48;17.38;;;;;;;16.50;78.99;101397.13;5089189;28;20107;-71
2023/05/15 10:42:34;;;;;;;25.42;16.13;;;;;;;16.52;82.35;101387.78;5087470;28;20028;-73
2023/05/15 10:45:01;;;;;;;24.70;15.63;;;;;;;16.44;77.87;101391.59;5081395;28;20024;-70
2023/05/15 10:47:28;;;;;;;24.58;15.07;;;;;;;16.55;78.97;101379.25;5083548;28;20081;-70
2023/05/15 10:49:54;;;;;;;28.10;15.23;;;;;;;16.73;80.88;101381.13;5083292;28;20059;-69
2023/05/15 10:52:20;;;;;;;24.77;16.02;;;;;;;16.73;81.04;101375.75;5082176;28;20067;-71
2023/05/15 10:54:45;;;;;;;23.35;16.75;;;;;;;16.59;81.63;101374.28;5079975;28;20039;-71
2023/05/15 10:57:11;;;;;;;27.00;17.48;;;;;;;16.60;81.32;101375.91;5080341;28;20040;-72
2023/05/15 10:59:36;;;;;;;23.60;14.13;;;;;;;16.61;80.90;101378.38;5082908;28;20028;-72
2023/05/15 11:02:21;;;;;;;24.55;14.60;;;;;;;16.57;80.54;101379.88;5081187;28;20039;-71
2023/05/15 11:04:47;;;;;;;23.88;13.93;;;;;;;16.40;79.24;101379.63;5079858;28;20016;-72